createdAt,value
2023-01-17T00:02:21.268Z,98016.00
2023-01-17T00:05:07.738Z,98017.40
2023-01-17T00:07:54.151Z,98014.40
2023-01-17T00:10:26.266Z,98005.80
2023-01-17T00:12:58.195Z,98001.20
2023-01-17T00:15:28.801Z,97993.20
2023-01-17T00:17:57.402Z,97990.60
2023-01-17T00:20:48.089Z,97990.80
2023-01-17T00:23:42.010Z,97991.60
2023-01-17T00:26:16.627Z,97992.20
2023-01-17T00:28:45.658Z,97984.60
2023-01-17T00:31:16.464Z,97978.80
2023-01-17T00:33:44.295Z,97975.80
2023-01-17T00:36:12.526Z,97972.80
2023-01-17T00:38:41.199Z,97979.40
2023-01-17T00:41:14.790Z,97976.60
2023-01-17T00:44:01.067Z,97977.40
2023-01-17T00:46:47.417Z,97977.20
2023-01-17T00:49:33.551Z,97978.40
2023-01-17T00:52:20.036Z,97983.00
2023-01-17T00:55:06.378Z,97983.80
2023-01-17T00:57:52.706Z,97983.00
2023-01-17T01:00:39.169Z,97975.00
2023-01-17T01:03:30.279Z,97971.60
2023-01-17T01:06:17.548Z,97971.40
2023-01-17T01:09:04.089Z,97970.20
2023-01-17T01:11:50.384Z,97968.40
2023-01-17T01:14:37.199Z,97965.40
2023-01-17T01:17:23.442Z,97969.60
2023-01-17T01:20:09.729Z,97966.20
2023-01-17T01:22:55.921Z,97961.60
2023-01-17T01:25:42.449Z,97962.20
2023-01-17T01:28:31.978Z,97957.80
2023-01-17T01:31:23.033Z,97958.80
2023-01-17T01:33:52.233Z,97959.20
2023-01-17T01:36:20.561Z,97957.80
2023-01-17T01:38:50.208Z,97957.20
2023-01-17T01:41:18.238Z,97960.20
2023-01-17T01:43:55.008Z,97959.60
2023-01-17T01:46:41.676Z,97964.80
2023-01-17T01:49:21.946Z,97964.80
2023-01-17T01:51:55.741Z,97964.00
2023-01-17T01:54:30.867Z,97969.20
2023-01-17T01:57:05.001Z,97965.00
2023-01-17T01:59:34.044Z,97967.40
2023-01-17T02:02:02.153Z,97961.80
2023-01-17T02:04:29.998Z,97973.80
2023-01-17T02:07:08.082Z,97967.40
2023-01-17T02:09:37.592Z,97974.20
2023-01-17T02:12:07.337Z,97976.60
2023-01-17T02:14:35.047Z,97973.80
2023-01-17T02:17:39.700Z,97979.00
2023-01-17T02:20:41.231Z,97975.80
2023-01-17T02:23:44.077Z,97971.40
2023-01-17T02:26:42.286Z,97976.20
2023-01-17T02:29:51.061Z,97968.40
2023-01-17T02:32:44.360Z,97973.20
2023-01-17T02:35:21.161Z,97966.80
2023-01-17T02:37:58.198Z,97973.20
2023-01-17T02:40:41.354Z,97975.40
2023-01-17T02:43:15.448Z,97980.20
2023-01-17T02:45:43.352Z,97980.20
2023-01-17T02:48:16.921Z,97981.20
2023-01-17T02:51:11.963Z,97977.40
2023-01-17T02:54:03.950Z,97977.40
2023-01-17T02:57:06.876Z,97979.40
2023-01-17T02:59:57.168Z,97972.00
2023-01-17T03:02:40.702Z,97962.60
2023-01-17T03:05:24.004Z,97955.60
2023-01-17T03:07:53.889Z,97955.00
2023-01-17T03:10:23.689Z,97946.80
2023-01-17T03:12:58.345Z,97949.60
2023-01-17T03:15:26.854Z,97948.00
2023-01-17T03:18:01.353Z,97949.80
2023-01-17T03:20:29.083Z,97944.00
2023-01-17T03:22:56.859Z,97936.80
2023-01-17T03:25:24.597Z,97930.00
2023-01-17T03:27:52.270Z,97935.40
2023-01-17T03:30:21.732Z,97932.60
2023-01-17T03:32:50.206Z,97932.40
2023-01-17T03:35:18.617Z,97940.60
2023-01-17T03:37:46.413Z,97939.40
2023-01-17T03:40:14.351Z,97944.80
2023-01-17T03:42:42.748Z,97942.80
2023-01-17T03:45:11.305Z,97937.20
2023-01-17T03:47:39.138Z,97934.40
2023-01-17T03:50:07.996Z,97933.20
2023-01-17T03:52:35.722Z,97935.20
2023-01-17T03:55:04.883Z,97937.00
2023-01-17T03:57:32.552Z,97938.20
2023-01-17T04:00:00.251Z,97937.80
2023-01-17T04:02:27.928Z,97934.40
2023-01-17T04:04:55.632Z,97937.00
2023-01-17T04:07:23.388Z,97935.20
2023-01-17T04:09:51.069Z,97932.00
2023-01-17T04:12:18.876Z,97935.20
2023-01-17T04:14:48.091Z,97936.00
2023-01-17T04:17:19.703Z,97938.80
2023-01-17T04:19:47.712Z,97944.00
2023-01-17T04:22:15.534Z,97946.80
2023-01-17T04:24:43.243Z,97941.00
2023-01-17T04:27:14.318Z,97944.40
2023-01-17T04:29:42.222Z,97945.60
2023-01-17T04:32:09.987Z,97940.00
2023-01-17T04:34:37.870Z,97934.40
2023-01-17T04:37:05.778Z,97939.00
2023-01-17T04:39:33.497Z,97938.20
2023-01-17T04:42:01.223Z,97934.60
2023-01-17T04:44:29.048Z,97923.80
2023-01-17T04:46:56.773Z,97928.40
2023-01-17T04:49:24.488Z,97930.80
2023-01-17T04:51:52.257Z,97939.80
2023-01-17T04:54:19.977Z,97935.20
2023-01-17T04:56:47.654Z,97939.20
2023-01-17T04:59:16.001Z,97936.20
2023-01-17T05:01:43.776Z,97929.00
2023-01-17T05:04:11.465Z,97921.40
2023-01-17T05:06:39.187Z,97918.00
2023-01-17T05:09:07.207Z,97916.00
2023-01-17T05:11:34.890Z,97914.00
2023-01-17T05:14:02.688Z,97912.20
2023-01-17T05:16:30.426Z,97914.80
2023-01-17T05:18:58.182Z,97919.00
2023-01-17T05:21:25.933Z,97912.40
2023-01-17T05:23:54.036Z,97914.60
2023-01-17T05:26:21.805Z,97912.20
2023-01-17T05:28:50.721Z,97909.40
2023-01-17T05:31:18.694Z,97905.60
2023-01-17T05:33:46.393Z,97904.20
2023-01-17T05:36:14.262Z,97906.40
2023-01-17T05:38:41.960Z,97902.20
2023-01-17T05:41:09.679Z,97898.00
2023-01-17T05:43:37.656Z,97904.20
2023-01-17T05:46:05.636Z,97899.20
2023-01-17T05:48:33.389Z,97904.60
2023-01-17T05:51:01.834Z,97909.40
2023-01-17T05:53:29.580Z,97909.60
2023-01-17T05:55:57.309Z,97911.60
2023-01-17T05:58:25.039Z,97916.40
2023-01-17T06:00:55.818Z,97910.20
2023-01-17T06:03:23.666Z,97917.60
2023-01-17T06:05:51.388Z,97917.00
2023-01-17T06:08:19.155Z,97923.00
2023-01-17T06:10:46.842Z,97927.40
2023-01-17T06:13:16.722Z,97925.60
2023-01-17T06:15:44.683Z,97927.80
2023-01-17T06:18:16.267Z,97927.40
2023-01-17T06:20:44.931Z,97929.80
2023-01-17T06:23:14.677Z,97935.00
2023-01-17T06:25:45.999Z,97945.00
2023-01-17T06:28:19.864Z,97942.60
2023-01-17T06:30:48.589Z,97949.20
2023-01-17T06:33:16.631Z,97951.00
2023-01-17T06:35:50.005Z,97946.00
2023-01-17T06:38:18.467Z,97943.80
2023-01-17T06:40:46.267Z,97947.20
2023-01-17T06:43:14.041Z,97940.40
2023-01-17T06:45:41.732Z,97937.20
2023-01-17T06:48:09.621Z,97936.80
2023-01-17T06:50:38.086Z,97931.80
2023-01-17T06:53:07.046Z,97929.60
2023-01-17T06:55:35.254Z,97926.00
2023-01-17T06:58:03.933Z,97929.60
2023-01-17T07:00:34.914Z,97928.80
2023-01-17T07:03:03.227Z,97940.80
2023-01-17T07:05:30.996Z,97942.00
2023-01-17T07:07:58.896Z,97943.00
2023-01-17T07:10:26.714Z,97935.60
2023-01-17T07:12:59.921Z,97936.20
2023-01-17T07:15:27.715Z,97946.60
2023-01-17T07:17:55.546Z,97941.40
2023-01-17T07:20:23.269Z,97941.20
2023-01-17T07:22:51.339Z,97937.40
2023-01-17T07:25:20.050Z,97942.60
2023-01-17T07:27:47.965Z,97939.60
2023-01-17T07:30:16.151Z,97938.20
2023-01-17T07:32:43.951Z,97947.00
2023-01-17T07:35:11.670Z,97949.20
2023-01-17T07:37:39.419Z,97958.40
2023-01-17T07:40:07.871Z,97953.00
2023-01-17T07:42:35.602Z,97956.40
2023-01-17T07:45:04.134Z,97967.20
2023-01-17T07:47:33.898Z,97963.20
2023-01-17T07:50:02.726Z,97957.20
2023-01-17T07:52:30.647Z,97953.60
2023-01-17T07:57:42.009Z,97951.60
2023-01-17T08:00:10.622Z,97960.40
2023-01-17T08:02:40.980Z,97969.00
2023-01-17T08:05:09.198Z,97970.00
2023-01-17T08:07:36.857Z,97968.80
2023-01-17T08:10:06.676Z,97972.80
2023-01-17T08:12:36.264Z,97970.00
2023-01-17T08:15:04.943Z,97967.40
2023-01-17T08:17:32.690Z,97969.20
2023-01-17T08:20:00.441Z,97969.80
2023-01-17T08:22:30.737Z,97975.40
2023-01-17T08:24:58.637Z,97974.80
2023-01-17T08:27:28.157Z,97975.80
2023-01-17T08:29:55.953Z,97973.20
2023-01-17T08:32:23.782Z,97975.40
2023-01-17T08:34:51.467Z,97968.40
2023-01-17T08:37:19.365Z,97968.80
2023-01-17T08:39:47.115Z,97970.60
2023-01-17T08:42:14.898Z,97965.60
2023-01-17T08:44:43.557Z,97967.40
2023-01-17T08:47:11.453Z,97965.20
2023-01-17T08:49:39.198Z,97963.00
2023-01-17T08:52:07.085Z,97963.40
2023-01-17T08:54:34.815Z,97969.60
2023-01-17T08:57:04.193Z,97982.60
2023-01-17T08:59:32.029Z,97978.00
2023-01-17T09:02:01.559Z,97991.20
2023-01-17T09:04:29.386Z,97991.20
2023-01-17T09:06:57.457Z,97994.00
2023-01-17T09:09:25.573Z,97994.60
2023-01-17T09:11:53.296Z,97993.80
2023-01-17T09:14:21.087Z,97999.60
2023-01-17T09:16:50.939Z,98000.20
2023-01-17T09:19:18.781Z,98006.20
2023-01-17T09:21:46.589Z,98003.40
2023-01-17T09:24:14.411Z,98006.20
2023-01-17T09:26:42.279Z,98006.40
2023-01-17T09:29:10.231Z,98007.40
2023-01-17T09:31:38.004Z,98006.40
2023-01-17T09:34:05.753Z,98007.20
2023-01-17T09:36:33.908Z,98002.20
2023-01-17T09:39:03.977Z,98002.20
2023-01-17T09:41:37.275Z,98009.60
2023-01-17T09:44:26.045Z,98005.00
2023-01-17T09:47:00.107Z,98008.80
2023-01-17T09:49:38.622Z,98013.20
2023-01-17T09:52:11.795Z,98018.00
2023-01-17T09:54:43.039Z,98022.20
2023-01-17T09:57:52.117Z,98032.60
2023-01-17T10:00:35.025Z,98035.60
2023-01-17T10:03:42.399Z,98040.00
2023-01-17T10:06:40.688Z,98049.20
2023-01-17T10:09:29.518Z,98051.00
2023-01-17T10:12:28.757Z,98053.20
2023-01-17T10:15:37.382Z,98051.20
2023-01-17T10:18:58.280Z,98057.80
2023-01-17T10:21:51.060Z,98062.60
2023-01-17T10:24:42.446Z,98057.80
2023-01-17T10:27:23.140Z,98068.00
2023-01-17T10:29:51.767Z,98061.80
2023-01-17T10:32:25.206Z,98064.40
2023-01-17T10:34:53.617Z,98066.60
2023-01-17T10:37:36.226Z,98064.60
2023-01-17T10:40:19.604Z,98068.00
2023-01-17T10:43:02.548Z,98062.20
2023-01-17T10:45:41.448Z,98065.80
2023-01-17T10:48:42.420Z,98069.80
2023-01-17T10:51:31.781Z,98069.60
2023-01-17T10:54:26.948Z,98064.20
2023-01-17T10:56:55.295Z,98074.20
2023-01-17T10:59:37.131Z,98066.40
2023-01-17T11:02:23.324Z,98071.00
2023-01-17T11:04:55.011Z,98070.20
2023-01-17T11:07:28.003Z,98064.00
2023-01-17T11:09:58.799Z,98062.80
2023-01-17T11:12:40.320Z,98063.80
2023-01-17T11:15:10.822Z,98064.80
2023-01-17T11:17:53.025Z,98067.40
2023-01-17T11:20:54.743Z,98066.60
2023-01-17T11:23:33.182Z,98066.80
2023-01-17T11:26:04.982Z,98066.40
2023-01-17T11:28:35.964Z,98063.60
2023-01-17T11:31:09.374Z,98065.60
2023-01-17T11:33:45.802Z,98061.00
2023-01-17T11:36:30.088Z,98050.80
2023-01-17T11:39:06.087Z,98050.80
2023-01-17T11:41:40.764Z,98045.40
2023-01-17T11:44:30.974Z,98046.60
2023-01-17T11:47:14.655Z,98049.60
2023-01-17T11:49:48.443Z,98050.00
2023-01-17T11:52:24.238Z,98049.40
2023-01-17T11:54:55.324Z,98047.20
2023-01-17T11:57:29.039Z,98046.60
2023-01-17T12:00:45.839Z,98041.20
2023-01-17T12:03:54.397Z,98038.40
2023-01-17T12:06:57.521Z,98041.40
2023-01-17T12:09:55.970Z,98043.00
2023-01-17T12:13:00.963Z,98035.20
2023-01-17T12:15:53.651Z,98031.40
2023-01-17T12:18:35.020Z,98028.00
2023-01-17T12:21:12.389Z,98031.20
2023-01-17T12:24:25.064Z,98026.80
2023-01-17T12:27:29.631Z,98027.00
2023-01-17T12:30:21.223Z,98034.60
2023-01-17T12:33:19.049Z,98034.00
2023-01-17T12:36:31.052Z,98033.80
2023-01-17T12:39:05.241Z,98026.40
2023-01-17T12:41:38.476Z,98028.20
2023-01-17T12:44:10.016Z,98023.40
2023-01-17T12:46:44.106Z,98027.40
2023-01-17T12:49:26.716Z,98027.40
2023-01-17T12:52:39.124Z,98027.00
2023-01-17T12:55:19.180Z,98028.80
2023-01-17T12:57:58.186Z,98029.20
2023-01-17T13:00:29.845Z,98027.00
2023-01-17T13:03:40.393Z,98030.80
2023-01-17T13:06:22.185Z,98028.40
2023-01-17T13:08:53.022Z,98027.40
2023-01-17T13:11:43.689Z,98024.20
2023-01-17T13:14:11.446Z,98031.20
2023-01-17T13:16:51.527Z,98030.00
2023-01-17T13:20:06.067Z,98034.40
2023-01-17T13:22:37.587Z,98037.60
2023-01-17T13:25:26.290Z,98040.60
2023-01-17T13:28:38.099Z,98038.00
2023-01-17T13:31:23.194Z,98040.60
2023-01-17T13:34:27.030Z,98043.60
2023-01-17T13:37:33.408Z,98044.20
2023-01-17T13:40:33.753Z,98041.60
2023-01-17T13:43:05.405Z,98040.40
2023-01-17T13:45:35.900Z,98044.20
2023-01-17T13:48:38.511Z,98042.80
2023-01-17T13:51:06.953Z,98048.40
2023-01-17T13:53:34.656Z,98052.80
2023-01-17T13:56:24.671Z,98052.00
2023-01-17T13:58:54.579Z,98048.60
2023-01-17T14:01:22.421Z,98051.20
2023-01-17T14:03:50.487Z,98061.20
2023-01-17T14:06:46.796Z,98060.60
2023-01-17T14:09:23.881Z,98058.20
2023-01-17T14:12:05.169Z,98061.60
2023-01-17T14:14:42.840Z,98071.60
2023-01-17T14:17:26.714Z,98072.80
2023-01-17T14:20:09.564Z,98067.60
2023-01-17T14:22:59.847Z,98075.20
2023-01-17T14:25:41.607Z,98079.60
2023-01-17T14:28:29.284Z,98082.20
2023-01-17T14:31:00.910Z,98081.60
2023-01-17T14:33:38.618Z,98091.60
2023-01-17T14:36:24.952Z,98086.40
2023-01-17T14:38:53.218Z,98086.60
2023-01-17T14:41:27.569Z,98080.80
2023-01-17T14:43:59.572Z,98089.00
2023-01-17T14:46:34.039Z,98082.60
2023-01-17T14:49:24.006Z,98084.60
2023-01-17T14:52:03.909Z,98087.80
2023-01-17T14:54:32.528Z,98090.00
2023-01-17T14:57:28.681Z,98096.00
2023-01-17T15:00:19.021Z,98096.60
2023-01-17T15:02:48.585Z,98096.60
2023-01-17T15:05:20.086Z,98094.60
2023-01-17T15:07:53.025Z,98092.60
2023-01-17T15:10:33.694Z,98101.60
2023-01-17T15:13:09.183Z,98098.20
2023-01-17T15:15:40.160Z,98100.80
2023-01-17T15:18:26.162Z,98095.00
2023-01-17T15:21:13.376Z,98098.40
2023-01-17T15:23:48.127Z,98100.00
2023-01-17T15:26:20.778Z,98104.40
2023-01-17T15:28:49.400Z,98107.20
2023-01-17T15:31:33.094Z,98108.40
2023-01-17T15:34:08.225Z,98109.60
2023-01-17T15:36:36.066Z,98119.00
2023-01-17T15:39:17.366Z,98128.80
2023-01-17T15:41:45.138Z,98132.60
2023-01-17T15:44:49.495Z,98134.80
2023-01-17T15:47:33.870Z,98136.20
2023-01-17T15:50:24.657Z,98141.20
2023-01-17T15:52:57.490Z,98149.20
2023-01-17T15:55:33.039Z,98149.00
2023-01-17T15:58:03.664Z,98148.40
2023-01-17T16:00:40.456Z,98151.40
2023-01-17T16:03:20.100Z,98153.20
2023-01-17T16:05:49.784Z,98159.20
2023-01-17T16:08:32.823Z,98166.20
2023-01-17T16:11:06.132Z,98158.60
2023-01-17T16:13:42.310Z,98161.60
2023-01-17T16:16:16.789Z,98162.20
2023-01-17T16:18:46.563Z,98164.00
2023-01-17T16:21:25.128Z,98166.40
2023-01-17T16:23:54.010Z,98174.20
2023-01-17T16:26:22.219Z,98178.40
2023-01-17T16:28:51.175Z,98183.20
2023-01-17T16:31:19.760Z,98185.60
2023-01-17T16:33:50.699Z,98193.20
2023-01-17T16:36:20.795Z,98200.20
2023-01-17T16:38:51.240Z,98195.80
2023-01-17T16:41:20.707Z,98196.00
2023-01-17T16:43:59.716Z,98199.20
2023-01-17T16:46:29.633Z,98201.40
2023-01-17T16:49:00.170Z,98205.00
2023-01-17T16:51:28.000Z,98216.00
2023-01-17T16:53:56.008Z,98212.80
2023-01-17T16:56:24.062Z,98212.20
2023-01-17T16:58:53.194Z,98213.20
2023-01-17T17:01:22.588Z,98218.60
2023-01-17T17:03:50.849Z,98218.80
2023-01-17T17:06:19.022Z,98219.60
2023-01-17T17:08:47.688Z,98228.20
2023-01-17T17:11:19.992Z,98233.00
2023-01-17T17:13:50.253Z,98231.20
2023-01-17T17:16:22.770Z,98239.00
2023-01-17T17:18:59.906Z,98244.40
2023-01-17T17:21:33.898Z,98251.00
2023-01-17T17:24:02.702Z,98259.60
2023-01-17T17:26:34.968Z,98262.60
2023-01-17T17:29:05.015Z,98271.60
2023-01-17T17:31:33.383Z,98264.80
2023-01-17T17:34:03.530Z,98269.60
2023-01-17T17:36:31.594Z,98262.40
2023-01-17T17:39:03.434Z,98262.80
2023-01-17T17:41:34.822Z,98263.60
2023-01-17T17:44:04.111Z,98266.80
2023-01-17T17:46:34.944Z,98272.60
2023-01-17T17:49:04.244Z,98273.00
2023-01-17T17:51:35.880Z,98273.40
2023-01-17T17:54:10.124Z,98272.60
2023-01-17T17:56:39.844Z,98274.20
2023-01-17T17:59:09.428Z,98287.40
2023-01-17T18:01:40.975Z,98286.20
2023-01-17T18:04:09.750Z,98288.60
2023-01-17T18:06:38.677Z,98294.20
2023-01-17T18:09:09.062Z,98297.40
2023-01-17T18:11:40.899Z,98300.60
2023-01-17T18:14:13.717Z,98305.40
2023-01-17T18:16:43.905Z,98304.20
2023-01-17T18:19:21.722Z,98302.60
2023-01-17T18:21:53.227Z,98311.60
2023-01-17T18:24:24.260Z,98313.20
2023-01-17T18:26:57.604Z,98315.80
2023-01-17T18:29:27.447Z,98315.00
2023-01-17T18:31:55.837Z,98318.60
2023-01-17T18:34:29.123Z,98321.20
2023-01-17T18:36:57.870Z,98333.20
2023-01-17T18:39:29.525Z,98332.80
2023-01-17T18:41:58.288Z,98336.00
2023-01-17T18:44:27.354Z,98335.60
2023-01-17T18:46:57.961Z,98334.40
2023-01-17T18:49:25.764Z,98337.40
2023-01-17T18:51:53.721Z,98337.00
2023-01-17T18:54:21.944Z,98338.40
2023-01-17T18:56:51.179Z,98340.20
2023-01-17T18:59:20.391Z,98347.40
2023-01-17T19:01:48.240Z,98344.60
2023-01-17T19:04:17.524Z,98350.80
2023-01-17T19:06:48.363Z,98355.60
2023-01-17T19:09:17.467Z,98354.00
2023-01-17T19:11:46.194Z,98356.40
2023-01-17T19:14:14.432Z,98354.00
2023-01-17T19:16:43.045Z,98351.20
2023-01-17T19:19:15.265Z,98353.40
2023-01-17T19:21:43.476Z,98349.20
2023-01-17T19:24:13.113Z,98355.00
2023-01-17T19:26:42.981Z,98357.40
2023-01-17T19:29:12.253Z,98356.60
2023-01-17T19:31:43.158Z,98355.00
2023-01-17T19:34:18.864Z,98357.20
2023-01-17T19:36:47.170Z,98353.40
2023-01-17T19:39:14.935Z,98362.40
2023-01-17T19:41:45.642Z,98360.00
2023-01-17T19:44:14.693Z,98363.40
2023-01-17T19:46:43.780Z,98369.80
2023-01-17T19:49:12.082Z,98373.80
2023-01-17T19:51:39.952Z,98375.80
2023-01-17T19:54:08.479Z,98369.00
2023-01-17T19:56:36.705Z,98372.60
2023-01-17T19:59:04.556Z,98380.60
2023-01-17T20:01:34.603Z,98383.60
2023-01-17T20:04:04.166Z,98377.40
2023-01-17T20:06:35.642Z,98380.60
2023-01-17T20:09:05.268Z,98376.40
2023-01-17T20:11:33.383Z,98375.00
2023-01-17T20:14:05.428Z,98378.20
2023-01-17T20:16:37.211Z,98382.20
2023-01-17T20:19:05.517Z,98385.20
2023-01-17T20:21:34.373Z,98385.80
2023-01-17T20:24:05.759Z,98389.20
2023-01-17T20:26:35.097Z,98394.80
2023-01-17T20:29:16.285Z,98400.20
2023-01-17T20:31:45.627Z,98399.20
2023-01-17T20:34:14.372Z,98392.80
2023-01-17T20:36:42.488Z,98402.20
2023-01-17T20:39:14.433Z,98399.80
2023-01-17T20:41:45.605Z,98402.20
2023-01-17T20:44:15.855Z,98410.20
2023-01-17T20:46:44.319Z,98409.40
2023-01-17T20:49:17.084Z,98412.20
2023-01-17T20:51:47.274Z,98413.40
2023-01-17T20:54:18.680Z,98414.80
2023-01-17T20:56:47.830Z,98416.80
2023-01-17T20:59:22.212Z,98409.60
2023-01-17T21:01:50.502Z,98414.60
2023-01-17T21:04:24.830Z,98422.20
2023-01-17T21:06:53.303Z,98421.40
2023-01-17T21:09:21.958Z,98422.20
2023-01-17T21:11:50.446Z,98426.40
2023-01-17T21:14:18.235Z,98424.80
2023-01-17T21:16:46.186Z,98420.80
2023-01-17T21:19:15.128Z,98418.20
2023-01-17T21:21:43.054Z,98424.20
2023-01-17T21:24:16.331Z,98427.40
2023-01-17T21:26:45.871Z,98427.40
2023-01-17T21:29:15.904Z,98423.20
2023-01-17T21:31:45.146Z,98422.60
2023-01-17T21:34:13.674Z,98432.40
2023-01-17T21:36:42.867Z,98429.80
2023-01-17T21:39:18.886Z,98429.60
2023-01-17T21:41:49.605Z,98426.20
2023-01-17T21:44:21.495Z,98428.20
2023-01-17T21:46:54.272Z,98433.80
2023-01-17T21:49:23.894Z,98440.80
2023-01-17T21:51:54.519Z,98446.00
2023-01-17T21:54:46.520Z,98442.40
2023-01-17T21:57:39.357Z,98449.00
2023-01-17T22:00:16.131Z,98445.00
2023-01-17T22:02:46.165Z,98449.80
2023-01-17T22:05:16.394Z,98448.60
2023-01-17T22:08:05.251Z,98444.60
2023-01-17T22:10:33.289Z,98453.60
2023-01-17T22:13:01.026Z,98450.00
2023-01-17T22:15:28.803Z,98445.00
2023-01-17T22:17:56.894Z,98442.80
2023-01-17T22:20:24.725Z,98442.80
2023-01-17T22:22:52.421Z,98445.40
2023-01-17T22:25:21.085Z,98443.40
2023-01-17T22:27:49.528Z,98444.60
2023-01-17T22:30:19.435Z,98448.20
2023-01-17T22:32:47.512Z,98449.40
2023-01-17T22:35:15.280Z,98458.40
2023-01-17T22:37:44.419Z,98463.80
2023-01-17T22:40:12.687Z,98463.80
2023-01-17T22:42:40.488Z,98467.40
2023-01-17T22:45:10.257Z,98457.80
2023-01-17T22:47:38.606Z,98459.00
2023-01-17T22:50:07.432Z,98462.60
2023-01-17T22:52:35.822Z,98462.40
2023-01-17T22:55:04.013Z,98459.40
2023-01-17T22:57:31.736Z,98458.60
2023-01-17T22:59:59.414Z,98458.20
2023-01-17T23:02:27.286Z,98457.00
2023-01-17T23:04:55.137Z,98460.40
2023-01-17T23:07:26.504Z,98465.00
2023-01-17T23:09:54.192Z,98466.40
2023-01-17T23:12:21.893Z,98464.40
2023-01-17T23:15:08.152Z,98465.20
2023-01-17T23:17:54.627Z,98466.80
2023-01-17T23:20:22.404Z,98460.00
2023-01-17T23:22:50.457Z,98466.40
2023-01-17T23:25:18.298Z,98468.40
2023-01-17T23:28:06.164Z,98470.60
2023-01-17T23:30:40.575Z,98466.00
2023-01-17T23:33:12.069Z,98462.80
2023-01-17T23:35:42.665Z,98455.00
2023-01-17T23:38:31.231Z,98466.00
2023-01-17T23:41:24.317Z,98469.40
2023-01-17T23:43:58.112Z,98464.20
2023-01-17T23:46:27.203Z,98464.60
2023-01-17T23:48:55.346Z,98465.40
2023-01-17T23:51:23.271Z,98462.00
2023-01-17T23:53:57.141Z,98468.40
2023-01-17T23:56:24.977Z,98458.60
2023-01-17T23:58:52.805Z,98460.80
